sensor_id;sensor_type;location;lat;lon;timestamp;pressure;altitude;pressure_sealevel;temperature
15062;BMP180;7630;50.306;8.566;2024-03-06T00:03:32;97854.00;;;11.20
15062;BMP180;7630;50.306;8.566;2024-03-06T00:07:34;97858.00;;;10.80
15062;BMP180;7630;50.306;8.566;2024-03-06T00:11:35;97867.00;;;11.20
15062;BMP180;7630;50.306;8.566;2024-03-06T00:15:39;97878.00;;;10.70
15062;BMP180;7630;50.306;8.566;2024-03-06T00:19:40;97887.00;;;10.60
15062;BMP180;7630;50.306;8.566;2024-03-06T00:23:41;97895.00;;;10.70
15062;BMP180;7630;50.306;8.566;2024-03-06T00:27:43;97894.00;;;10.90
15062;BMP180;7630;50.306;8.566;2024-03-06T00:31:45;97898.00;;;11.00
15062;BMP180;7630;50.306;8.566;2024-03-06T00:35:47;97900.00;;;11.20
15062;BMP180;7630;50.306;8.566;2024-03-06T00:39:48;97907.00;;;11.00
15062;BMP180;7630;50.306;8.566;2024-03-06T00:43:49;97909.00;;;11.10
15062;BMP180;7630;50.306;8.566;2024-03-06T00:47:50;97904.00;;;11.30
15062;BMP180;7630;50.306;8.566;2024-03-06T00:51:51;97912.00;;;11.20
15062;BMP180;7630;50.306;8.566;2024-03-06T00:55:52;97905.00;;;10.80
15062;BMP180;7630;50.306;8.566;2024-03-06T00:59:54;97905.00;;;10.40
15062;BMP180;7630;50.306;8.566;2024-03-06T01:03:55;97907.00;;;10.80
15062;BMP180;7630;50.306;8.566;2024-03-06T01:07:57;97912.00;;;10.90
15062;BMP180;7630;50.306;8.566;2024-03-06T01:12:00;97908.00;;;10.80
15062;BMP180;7630;50.306;8.566;2024-03-06T01:16:01;97911.00;;;10.90
15062;BMP180;7630;50.306;8.566;2024-03-06T01:20:02;97920.00;;;10.60
15062;BMP180;7630;50.306;8.566;2024-03-06T01:24:05;97928.00;;;10.50
15062;BMP180;7630;50.306;8.566;2024-03-06T01:28:06;97921.00;;;10.70
15062;BMP180;7630;50.306;8.566;2024-03-06T01:32:07;97920.00;;;9.70
15062;BMP180;7630;50.306;8.566;2024-03-06T01:36:08;97927.00;;;10.10
15062;BMP180;7630;50.306;8.566;2024-03-06T01:40:11;97933.00;;;10.40
15062;BMP180;7630;50.306;8.566;2024-03-06T01:44:18;97926.00;;;10.50
15062;BMP180;7630;50.306;8.566;2024-03-06T01:48:26;97921.00;;;10.50
15062;BMP180;7630;50.306;8.566;2024-03-06T01:52:27;97919.00;;;10.30
15062;BMP180;7630;50.306;8.566;2024-03-06T01:56:29;97919.00;;;10.10
15062;BMP180;7630;50.306;8.566;2024-03-06T02:00:32;97924.00;;;10.50
15062;BMP180;7630;50.306;8.566;2024-03-06T02:04:34;97913.00;;;10.40
15062;BMP180;7630;50.306;8.566;2024-03-06T02:08:36;97907.00;;;10.20
15062;BMP180;7630;50.306;8.566;2024-03-06T02:12:37;97912.00;;;10.20
15062;BMP180;7630;50.306;8.566;2024-03-06T02:16:39;97916.00;;;10.30
15062;BMP180;7630;50.306;8.566;2024-03-06T02:20:40;97927.00;;;10.40
15062;BMP180;7630;50.306;8.566;2024-03-06T02:24:44;97928.00;;;10.30
15062;BMP180;7630;50.306;8.566;2024-03-06T02:32:52;97927.00;;;10.20
15062;BMP180;7630;50.306;8.566;2024-03-06T02:36:53;97938.00;;;9.50
15062;BMP180;7630;50.306;8.566;2024-03-06T02:40:55;97941.00;;;10.20
15062;BMP180;7630;50.306;8.566;2024-03-06T02:44:56;97938.00;;;9.10
15062;BMP180;7630;50.306;8.566;2024-03-06T02:48:57;97946.00;;;9.60
15062;BMP180;7630;50.306;8.566;2024-03-06T02:52:58;97947.00;;;10.10
15062;BMP180;7630;50.306;8.566;2024-03-06T02:56:59;97947.00;;;9.90
15062;BMP180;7630;50.306;8.566;2024-03-06T03:01:00;97940.00;;;9.80
15062;BMP180;7630;50.306;8.566;2024-03-06T03:05:02;97939.00;;;9.80
15062;BMP180;7630;50.306;8.566;2024-03-06T03:09:04;97941.00;;;8.80
15062;BMP180;7630;50.306;8.566;2024-03-06T03:13:05;97929.00;;;8.10
15062;BMP180;7630;50.306;8.566;2024-03-06T03:17:06;97936.00;;;8.10
15062;BMP180;7630;50.306;8.566;2024-03-06T03:21:08;97943.00;;;9.20
15062;BMP180;7630;50.306;8.566;2024-03-06T03:25:11;97951.00;;;9.90
15062;BMP180;7630;50.306;8.566;2024-03-06T03:29:14;97954.00;;;9.80
15062;BMP180;7630;50.306;8.566;2024-03-06T03:33:16;97945.00;;;9.60
15062;BMP180;7630;50.306;8.566;2024-03-06T03:37:17;97940.00;;;9.80
15062;BMP180;7630;50.306;8.566;2024-03-06T03:41:18;97942.00;;;9.60
15062;BMP180;7630;50.306;8.566;2024-03-06T03:45:20;97939.00;;;9.70
15062;BMP180;7630;50.306;8.566;2024-03-06T03:49:21;97941.00;;;9.40
15062;BMP180;7630;50.306;8.566;2024-03-06T03:53:22;97948.00;;;9.50
15062;BMP180;7630;50.306;8.566;2024-03-06T03:57:23;97947.00;;;9.70
15062;BMP180;7630;50.306;8.566;2024-03-06T04:01:25;97961.00;;;9.60
15062;BMP180;7630;50.306;8.566;2024-03-06T04:05:26;97970.00;;;9.40
15062;BMP180;7630;50.306;8.566;2024-03-06T04:09:28;97969.00;;;9.30
15062;BMP180;7630;50.306;8.566;2024-03-06T04:13:29;97974.00;;;9.30
15062;BMP180;7630;50.306;8.566;2024-03-06T04:17:30;97975.00;;;9.10
15062;BMP180;7630;50.306;8.566;2024-03-06T04:21:31;97968.00;;;8.70
15062;BMP180;7630;50.306;8.566;2024-03-06T04:25:32;97982.00;;;9.20
15062;BMP180;7630;50.306;8.566;2024-03-06T04:29:33;97991.00;;;9.40
15062;BMP180;7630;50.306;8.566;2024-03-06T04:33:35;97987.00;;;9.30
15062;BMP180;7630;50.306;8.566;2024-03-06T04:37:36;97995.00;;;9.30
15062;BMP180;7630;50.306;8.566;2024-03-06T04:41:37;97996.00;;;9.10
15062;BMP180;7630;50.306;8.566;2024-03-06T04:45:38;97996.00;;;8.90
15062;BMP180;7630;50.306;8.566;2024-03-06T04:49:39;97998.00;;;8.90
15062;BMP180;7630;50.306;8.566;2024-03-06T04:53:40;98006.00;;;9.00
15062;BMP180;7630;50.306;8.566;2024-03-06T04:57:43;98000.00;;;8.50
15062;BMP180;7630;50.306;8.566;2024-03-06T05:01:44;97997.00;;;8.90
15062;BMP180;7630;50.306;8.566;2024-03-06T05:05:46;98004.00;;;9.40
15062;BMP180;7630;50.306;8.566;2024-03-06T05:10:06;98004.00;;;9.20
15062;BMP180;7630;50.306;8.566;2024-03-06T05:14:28;98008.00;;;9.20
15062;BMP180;7630;50.306;8.566;2024-03-06T05:18:47;98014.00;;;9.20
15062;BMP180;7630;50.306;8.566;2024-03-06T05:23:07;98012.00;;;9.20
15062;BMP180;7630;50.306;8.566;2024-03-06T05:27:27;98026.00;;;9.20
15062;BMP180;7630;50.306;8.566;2024-03-06T05:31:46;98036.00;;;9.20
15062;BMP180;7630;50.306;8.566;2024-03-06T05:36:06;98035.00;;;8.80
15062;BMP180;7630;50.306;8.566;2024-03-06T05:40:25;98051.00;;;8.90
15062;BMP180;7630;50.306;8.566;2024-03-06T05:44:45;98054.00;;;7.70
15062;BMP180;7630;50.306;8.566;2024-03-06T05:49:04;98057.00;;;8.70
15062;BMP180;7630;50.306;8.566;2024-03-06T05:53:23;98081.00;;;9.00
15062;BMP180;7630;50.306;8.566;2024-03-06T05:57:43;98070.00;;;9.00
15062;BMP180;7630;50.306;8.566;2024-03-06T06:02:05;98072.00;;;9.20
15062;BMP180;7630;50.306;8.566;2024-03-06T06:06:07;98077.00;;;9.20
15062;BMP180;7630;50.306;8.566;2024-03-06T06:10:09;98087.00;;;9.30
15062;BMP180;7630;50.306;8.566;2024-03-06T06:14:10;98084.00;;;9.40
15062;BMP180;7630;50.306;8.566;2024-03-06T06:18:12;98092.00;;;9.30
15062;BMP180;7630;50.306;8.566;2024-03-06T06:22:13;98084.00;;;9.20
15062;BMP180;7630;50.306;8.566;2024-03-06T06:26:14;98098.00;;;9.40
15062;BMP180;7630;50.306;8.566;2024-03-06T06:30:16;98115.00;;;9.30
15062;BMP180;7630;50.306;8.566;2024-03-06T06:34:17;98114.00;;;9.20
15062;BMP180;7630;50.306;8.566;2024-03-06T06:38:19;98116.00;;;9.30
15062;BMP180;7630;50.306;8.566;2024-03-06T06:42:21;98123.00;;;9.30
15062;BMP180;7630;50.306;8.566;2024-03-06T06:46:22;98112.00;;;9.00
15062;BMP180;7630;50.306;8.566;2024-03-06T06:50:23;98126.00;;;9.30
15062;BMP180;7630;50.306;8.566;2024-03-06T06:54:26;98133.00;;;9.50
15062;BMP180;7630;50.306;8.566;2024-03-06T06:58:27;98129.00;;;9.10
15062;BMP180;7630;50.306;8.566;2024-03-06T07:02:28;98129.00;;;9.50
15062;BMP180;7630;50.306;8.566;2024-03-06T07:06:30;98135.00;;;9.70
15062;BMP180;7630;50.306;8.566;2024-03-06T07:10:31;98141.00;;;10.10
15062;BMP180;7630;50.306;8.566;2024-03-06T07:14:33;98145.00;;;10.20
15062;BMP180;7630;50.306;8.566;2024-03-06T07:18:34;98145.00;;;10.30
15062;BMP180;7630;50.306;8.566;2024-03-06T07:22:35;98148.00;;;10.00
15062;BMP180;7630;50.306;8.566;2024-03-06T07:26:36;98156.00;;;10.40
15062;BMP180;7630;50.306;8.566;2024-03-06T07:30:37;98154.00;;;10.00
15062;BMP180;7630;50.306;8.566;2024-03-06T07:34:39;98154.00;;;10.20
15062;BMP180;7630;50.306;8.566;2024-03-06T07:38:40;98159.00;;;10.60
15062;BMP180;7630;50.306;8.566;2024-03-06T07:42:42;98164.00;;;10.70
15062;BMP180;7630;50.306;8.566;2024-03-06T07:46:44;98163.00;;;10.60
15062;BMP180;7630;50.306;8.566;2024-03-06T07:50:45;98167.00;;;10.70
15062;BMP180;7630;50.306;8.566;2024-03-06T07:54:46;98176.00;;;11.00
15062;BMP180;7630;50.306;8.566;2024-03-06T07:58:48;98174.00;;;11.50
15062;BMP180;7630;50.306;8.566;2024-03-06T08:02:49;98189.00;;;10.10
15062;BMP180;7630;50.306;8.566;2024-03-06T08:06:50;98194.00;;;11.40
15062;BMP180;7630;50.306;8.566;2024-03-06T08:10:52;98203.00;;;11.00
15062;BMP180;7630;50.306;8.566;2024-03-06T08:14:53;98209.00;;;11.30
15062;BMP180;7630;50.306;8.566;2024-03-06T08:18:55;98216.00;;;11.50
15062;BMP180;7630;50.306;8.566;2024-03-06T08:22:57;98216.00;;;10.80
15062;BMP180;7630;50.306;8.566;2024-03-06T08:26:58;98226.00;;;11.60
15062;BMP180;7630;50.306;8.566;2024-03-06T08:30:59;98223.00;;;12.50
15062;BMP180;7630;50.306;8.566;2024-03-06T08:35:03;98235.00;;;12.90
15062;BMP180;7630;50.306;8.566;2024-03-06T08:39:06;98234.00;;;12.90
15062;BMP180;7630;50.306;8.566;2024-03-06T08:43:08;98240.00;;;13.30
15062;BMP180;7630;50.306;8.566;2024-03-06T08:47:11;98248.00;;;13.40
15062;BMP180;7630;50.306;8.566;2024-03-06T08:51:12;98175.00;;;14.10
15062;BMP180;7630;50.306;8.566;2024-03-06T08:55:15;98258.00;;;14.60
15062;BMP180;7630;50.306;8.566;2024-03-06T08:59:16;98256.00;;;15.50
15062;BMP180;7630;50.306;8.566;2024-03-06T09:03:17;98254.00;;;15.50
15062;BMP180;7630;50.306;8.566;2024-03-06T09:07:19;98257.00;;;12.20
15062;BMP180;7630;50.306;8.566;2024-03-06T09:11:20;98257.00;;;12.10
15062;BMP180;7630;50.306;8.566;2024-03-06T09:15:23;98260.00;;;9.60
15062;BMP180;7630;50.306;8.566;2024-03-06T09:19:25;98261.00;;;9.20
15062;BMP180;7630;50.306;8.566;2024-03-06T09:23:26;98267.00;;;9.10
15062;BMP180;7630;50.306;8.566;2024-03-06T09:27:27;98265.00;;;8.30
15062;BMP180;7630;50.306;8.566;2024-03-06T09:31:28;98272.00;;;7.90
15062;BMP180;7630;50.306;8.566;2024-03-06T09:35:29;98284.00;;;7.60
15062;BMP180;7630;50.306;8.566;2024-03-06T09:39:31;98279.00;;;8.40
15062;BMP180;7630;50.306;8.566;2024-03-06T09:43:32;98270.00;;;7.70
15062;BMP180;7630;50.306;8.566;2024-03-06T09:47:34;98272.00;;;8.00
15062;BMP180;7630;50.306;8.566;2024-03-06T09:51:38;98284.00;;;7.80
15062;BMP180;7630;50.306;8.566;2024-03-06T09:55:42;98278.00;;;7.10
15062;BMP180;7630;50.306;8.566;2024-03-06T09:59:44;98275.00;;;7.20
15062;BMP180;7630;50.306;8.566;2024-03-06T10:03:45;98273.00;;;7.30
15062;BMP180;7630;50.306;8.566;2024-03-06T10:07:47;98278.00;;;7.30
15062;BMP180;7630;50.306;8.566;2024-03-06T10:11:50;98275.00;;;7.20
15062;BMP180;7630;50.306;8.566;2024-03-06T10:16:02;98280.00;;;7.90
15062;BMP180;7630;50.306;8.566;2024-03-06T10:20:23;98269.00;;;7.40
15062;BMP180;7630;50.306;8.566;2024-03-06T10:24:27;98275.00;;;7.90
15062;BMP180;7630;50.306;8.566;2024-03-06T10:28:28;98274.00;;;8.20
15062;BMP180;7630;50.306;8.566;2024-03-06T10:32:30;98282.00;;;9.90
15062;BMP180;7630;50.306;8.566;2024-03-06T10:36:32;98285.00;;;11.90
15062;BMP180;7630;50.306;8.566;2024-03-06T10:40:35;98283.00;;;10.80
15062;BMP180;7630;50.306;8.566;2024-03-06T10:44:39;98272.00;;;10.00
15062;BMP180;7630;50.306;8.566;2024-03-06T10:48:43;98279.00;;;9.90
15062;BMP180;7630;50.306;8.566;2024-03-06T10:52:46;98275.00;;;9.50
15062;BMP180;7630;50.306;8.566;2024-03-06T10:56:48;98281.00;;;8.50
15062;BMP180;7630;50.306;8.566;2024-03-06T11:00:51;98275.00;;;8.60
15062;BMP180;7630;50.306;8.566;2024-03-06T11:04:53;98278.00;;;9.10
15062;BMP180;7630;50.306;8.566;2024-03-06T11:08:54;98289.00;;;8.70
15062;BMP180;7630;50.306;8.566;2024-03-06T11:12:56;98288.00;;;8.90
15062;BMP180;7630;50.306;8.566;2024-03-06T11:25:07;98281.00;;;9.90
15062;BMP180;7630;50.306;8.566;2024-03-06T11:29:09;98288.00;;;9.90
15062;BMP180;7630;50.306;8.566;2024-03-06T11:33:14;98283.00;;;10.60
15062;BMP180;7630;50.306;8.566;2024-03-06T11:37:20;98283.00;;;9.60
15062;BMP180;7630;50.306;8.566;2024-03-06T11:41:22;98288.00;;;9.00
15062;BMP180;7630;50.306;8.566;2024-03-06T11:45:25;98282.00;;;9.50
15062;BMP180;7630;50.306;8.566;2024-03-06T11:49:28;98295.00;;;10.20
15062;BMP180;7630;50.306;8.566;2024-03-06T11:53:30;98302.00;;;9.20
15062;BMP180;7630;50.306;8.566;2024-03-06T11:57:31;98299.00;;;9.30
15062;BMP180;7630;50.306;8.566;2024-03-06T12:01:35;98297.00;;;9.20
15062;BMP180;7630;50.306;8.566;2024-03-06T12:05:37;98300.00;;;9.40
15062;BMP180;7630;50.306;8.566;2024-03-06T12:09:38;98307.00;;;10.20
15062;BMP180;7630;50.306;8.566;2024-03-06T12:13:45;98301.00;;;9.30
15062;BMP180;7630;50.306;8.566;2024-03-06T12:17:48;98307.00;;;8.90
15062;BMP180;7630;50.306;8.566;2024-03-06T12:21:52;98299.00;;;9.70
15062;BMP180;7630;50.306;8.566;2024-03-06T12:26:06;98307.00;;;10.20
15062;BMP180;7630;50.306;8.566;2024-03-06T12:30:10;98326.00;;;9.30
15062;BMP180;7630;50.306;8.566;2024-03-06T12:34:14;98304.00;;;9.00
15062;BMP180;7630;50.306;8.566;2024-03-06T12:38:18;98304.00;;;9.20
15062;BMP180;7630;50.306;8.566;2024-03-06T12:42:19;98306.00;;;9.70
15062;BMP180;7630;50.306;8.566;2024-03-06T12:46:20;98314.00;;;9.50
15062;BMP180;7630;50.306;8.566;2024-03-06T12:50:21;98317.00;;;10.20
15062;BMP180;7630;50.306;8.566;2024-03-06T12:54:23;98307.00;;;11.40
15062;BMP180;7630;50.306;8.566;2024-03-06T12:58:24;98314.00;;;10.60
15062;BMP180;7630;50.306;8.566;2024-03-06T13:02:25;98314.00;;;10.40
15062;BMP180;7630;50.306;8.566;2024-03-06T13:06:26;98313.00;;;8.90
15062;BMP180;7630;50.306;8.566;2024-03-06T13:10:29;98311.00;;;9.70
15062;BMP180;7630;50.306;8.566;2024-03-06T13:14:31;98318.00;;;9.90
15062;BMP180;7630;50.306;8.566;2024-03-06T13:18:32;98304.00;;;9.50
15062;BMP180;7630;50.306;8.566;2024-03-06T13:22:33;98307.00;;;9.40
15062;BMP180;7630;50.306;8.566;2024-03-06T13:26:34;98323.00;;;10.50
15062;BMP180;7630;50.306;8.566;2024-03-06T13:30:37;98319.00;;;9.50
15062;BMP180;7630;50.306;8.566;2024-03-06T13:34:39;98305.00;;;9.20
15062;BMP180;7630;50.306;8.566;2024-03-06T13:38:40;98313.00;;;9.50
15062;BMP180;7630;50.306;8.566;2024-03-06T13:42:42;98305.00;;;9.90
15062;BMP180;7630;50.306;8.566;2024-03-06T13:46:44;98317.00;;;9.70
15062;BMP180;7630;50.306;8.566;2024-03-06T13:50:46;98321.00;;;9.40
15062;BMP180;7630;50.306;8.566;2024-03-06T13:54:47;98321.00;;;9.30
15062;BMP180;7630;50.306;8.566;2024-03-06T13:58:49;98327.00;;;9.60
15062;BMP180;7630;50.306;8.566;2024-03-06T14:02:50;98333.00;;;8.90
15062;BMP180;7630;50.306;8.566;2024-03-06T14:06:51;98335.00;;;9.70
15062;BMP180;7630;50.306;8.566;2024-03-06T14:10:52;98330.00;;;9.90
15062;BMP180;7630;50.306;8.566;2024-03-06T14:14:53;98335.00;;;11.40
15062;BMP180;7630;50.306;8.566;2024-03-06T14:18:54;98329.00;;;11.20
15062;BMP180;7630;50.306;8.566;2024-03-06T14:22:56;98335.00;;;10.00
15062;BMP180;7630;50.306;8.566;2024-03-06T14:26:58;98335.00;;;10.70
15062;BMP180;7630;50.306;8.566;2024-03-06T14:30:59;98333.00;;;10.50
15062;BMP180;7630;50.306;8.566;2024-03-06T14:35:01;98329.00;;;9.70
15062;BMP180;7630;50.306;8.566;2024-03-06T14:39:03;98323.00;;;9.80
15062;BMP180;7630;50.306;8.566;2024-03-06T14:43:04;98320.00;;;9.80
15062;BMP180;7630;50.306;8.566;2024-03-06T14:47:07;98328.00;;;10.10
15062;BMP180;7630;50.306;8.566;2024-03-06T14:51:08;98329.00;;;10.00
15062;BMP180;7630;50.306;8.566;2024-03-06T14:55:09;98329.00;;;9.60
15062;BMP180;7630;50.306;8.566;2024-03-06T14:59:10;98316.00;;;10.70
15062;BMP180;7630;50.306;8.566;2024-03-06T15:03:12;98319.00;;;10.60
15062;BMP180;7630;50.306;8.566;2024-03-06T15:07:13;98312.00;;;10.40
15062;BMP180;7630;50.306;8.566;2024-03-06T15:11:14;98328.00;;;10.30
15062;BMP180;7630;50.306;8.566;2024-03-06T15:15:16;98320.00;;;10.10
15062;BMP180;7630;50.306;8.566;2024-03-06T15:19:17;98330.00;;;9.40
15062;BMP180;7630;50.306;8.566;2024-03-06T15:23:18;98335.00;;;9.30
15062;BMP180;7630;50.306;8.566;2024-03-06T15:27:19;98341.00;;;9.90
15062;BMP180;7630;50.306;8.566;2024-03-06T15:31:20;98343.00;;;9.30
15062;BMP180;7630;50.306;8.566;2024-03-06T15:35:22;98346.00;;;9.30
15062;BMP180;7630;50.306;8.566;2024-03-06T15:39:24;98333.00;;;9.10
15062;BMP180;7630;50.306;8.566;2024-03-06T15:43:25;98347.00;;;9.10
15062;BMP180;7630;50.306;8.566;2024-03-06T15:47:27;98346.00;;;8.80
15062;BMP180;7630;50.306;8.566;2024-03-06T15:51:28;98358.00;;;8.80
15062;BMP180;7630;50.306;8.566;2024-03-06T15:55:29;98335.00;;;8.60
15062;BMP180;7630;50.306;8.566;2024-03-06T15:59:37;98338.00;;;8.90
15062;BMP180;7630;50.306;8.566;2024-03-06T16:03:38;98352.00;;;8.30
15062;BMP180;7630;50.306;8.566;2024-03-06T16:07:39;98354.00;;;8.40
15062;BMP180;7630;50.306;8.566;2024-03-06T16:11:42;98347.00;;;8.30
15062;BMP180;7630;50.306;8.566;2024-03-06T16:15:44;98359.00;;;8.30
15062;BMP180;7630;50.306;8.566;2024-03-06T16:19:46;98378.00;;;8.30
15062;BMP180;7630;50.306;8.566;2024-03-06T16:23:48;98351.00;;;8.50
15062;BMP180;7630;50.306;8.566;2024-03-06T16:27:49;98379.00;;;8.40
15062;BMP180;7630;50.306;8.566;2024-03-06T16:31:50;98378.00;;;8.20
15062;BMP180;7630;50.306;8.566;2024-03-06T16:35:52;98384.00;;;8.50
15062;BMP180;7630;50.306;8.566;2024-03-06T16:39:53;98382.00;;;8.50
15062;BMP180;7630;50.306;8.566;2024-03-06T16:43:54;98375.00;;;8.70
15062;BMP180;7630;50.306;8.566;2024-03-06T16:47:56;98382.00;;;8.10
15062;BMP180;7630;50.306;8.566;2024-03-06T16:51:59;98389.00;;;8.60
15062;BMP180;7630;50.306;8.566;2024-03-06T16:56:00;98392.00;;;8.60
15062;BMP180;7630;50.306;8.566;2024-03-06T17:00:01;98395.00;;;9.20
15062;BMP180;7630;50.306;8.566;2024-03-06T17:04:06;98397.00;;;8.30
15062;BMP180;7630;50.306;8.566;2024-03-06T17:08:08;98401.00;;;8.40
15062;BMP180;7630;50.306;8.566;2024-03-06T17:12:09;98406.00;;;8.30
15062;BMP180;7630;50.306;8.566;2024-03-06T17:16:10;98404.00;;;8.40
15062;BMP180;7630;50.306;8.566;2024-03-06T17:20:12;98417.00;;;8.50
15062;BMP180;7630;50.306;8.566;2024-03-06T17:24:14;98414.00;;;8.40
15062;BMP180;7630;50.306;8.566;2024-03-06T17:28:15;98416.00;;;9.00
15062;BMP180;7630;50.306;8.566;2024-03-06T17:32:18;98415.00;;;8.60
15062;BMP180;7630;50.306;8.566;2024-03-06T17:36:24;98426.00;;;10.50
15062;BMP180;7630;50.306;8.566;2024-03-06T17:40:25;98418.00;;;11.30
15062;BMP180;7630;50.306;8.566;2024-03-06T17:44:26;98424.00;;;10.70
15062;BMP180;7630;50.306;8.566;2024-03-06T17:48:29;98420.00;;;10.80
15062;BMP180;7630;50.306;8.566;2024-03-06T17:52:30;98435.00;;;10.60
15062;BMP180;7630;50.306;8.566;2024-03-06T17:56:32;98434.00;;;10.30
15062;BMP180;7630;50.306;8.566;2024-03-06T18:00:36;98486.00;;;10.60
15062;BMP180;7630;50.306;8.566;2024-03-06T18:04:37;98444.00;;;11.10
15062;BMP180;7630;50.306;8.566;2024-03-06T18:08:38;98446.00;;;11.30
15062;BMP180;7630;50.306;8.566;2024-03-06T18:12:39;98450.00;;;9.70
15062;BMP180;7630;50.306;8.566;2024-03-06T18:16:43;98451.00;;;10.40
15062;BMP180;7630;50.306;8.566;2024-03-06T18:20:47;98456.00;;;10.50
15062;BMP180;7630;50.306;8.566;2024-03-06T18:24:49;98450.00;;;9.90
15062;BMP180;7630;50.306;8.566;2024-03-06T18:28:50;98458.00;;;9.60
15062;BMP180;7630;50.306;8.566;2024-03-06T18:32:51;98465.00;;;8.80
15062;BMP180;7630;50.306;8.566;2024-03-06T18:36:52;98465.00;;;9.30
15062;BMP180;7630;50.306;8.566;2024-03-06T18:40:53;98459.00;;;10.20
15062;BMP180;7630;50.306;8.566;2024-03-06T18:44:55;98462.00;;;10.10
15062;BMP180;7630;50.306;8.566;2024-03-06T18:48:56;98461.00;;;9.80
15062;BMP180;7630;50.306;8.566;2024-03-06T18:52:57;98471.00;;;9.80
15062;BMP180;7630;50.306;8.566;2024-03-06T18:56:58;98477.00;;;10.50
15062;BMP180;7630;50.306;8.566;2024-03-06T19:01:00;98470.00;;;10.20
15062;BMP180;7630;50.306;8.566;2024-03-06T19:05:01;98476.00;;;10.50
15062;BMP180;7630;50.306;8.566;2024-03-06T19:09:02;98480.00;;;10.40
15062;BMP180;7630;50.306;8.566;2024-03-06T19:13:05;98480.00;;;10.30
15062;BMP180;7630;50.306;8.566;2024-03-06T19:17:07;98479.00;;;10.20
15062;BMP180;7630;50.306;8.566;2024-03-06T19:21:08;98482.00;;;10.20
15062;BMP180;7630;50.306;8.566;2024-03-06T19:25:09;98483.00;;;10.10
15062;BMP180;7630;50.306;8.566;2024-03-06T19:29:11;98484.00;;;9.90
15062;BMP180;7630;50.306;8.566;2024-03-06T19:33:12;98488.00;;;9.90
15062;BMP180;7630;50.306;8.566;2024-03-06T19:37:13;98492.00;;;9.90
15062;BMP180;7630;50.306;8.566;2024-03-06T19:41:15;98487.00;;;9.70
15062;BMP180;7630;50.306;8.566;2024-03-06T19:45:17;98490.00;;;9.50
15062;BMP180;7630;50.306;8.566;2024-03-06T19:49:19;98490.00;;;9.40
15062;BMP180;7630;50.306;8.566;2024-03-06T19:53:20;98486.00;;;9.30
15062;BMP180;7630;50.306;8.566;2024-03-06T19:57:21;98492.00;;;9.20
15062;BMP180;7630;50.306;8.566;2024-03-06T20:01:23;98484.00;;;8.90
15062;BMP180;7630;50.306;8.566;2024-03-06T20:05:24;98492.00;;;8.90
15062;BMP180;7630;50.306;8.566;2024-03-06T20:09:25;98485.00;;;8.70
15062;BMP180;7630;50.306;8.566;2024-03-06T20:13:28;98488.00;;;9.10
15062;BMP180;7630;50.306;8.566;2024-03-06T20:17:29;98492.00;;;8.80
15062;BMP180;7630;50.306;8.566;2024-03-06T20:21:30;98493.00;;;8.50
15062;BMP180;7630;50.306;8.566;2024-03-06T20:25:36;98494.00;;;8.80
15062;BMP180;7630;50.306;8.566;2024-03-06T20:29:40;98495.00;;;8.90
15062;BMP180;7630;50.306;8.566;2024-03-06T20:33:42;98496.00;;;8.30
15062;BMP180;7630;50.306;8.566;2024-03-06T20:37:43;98492.00;;;8.80
15062;BMP180;7630;50.306;8.566;2024-03-06T20:46:10;98140.00;;;8.20
15062;BMP180;7630;50.306;8.566;2024-03-06T20:50:11;98498.00;;;8.20
15062;BMP180;7630;50.306;8.566;2024-03-06T20:54:12;98491.00;;;8.30
15062;BMP180;7630;50.306;8.566;2024-03-06T20:58:13;98487.00;;;8.00
15062;BMP180;7630;50.306;8.566;2024-03-06T21:02:14;98483.00;;;7.80
15062;BMP180;7630;50.306;8.566;2024-03-06T21:06:16;98489.00;;;7.80
15062;BMP180;7630;50.306;8.566;2024-03-06T21:10:17;98487.00;;;7.90
15062;BMP180;7630;50.306;8.566;2024-03-06T21:14:18;98512.00;;;7.70
15062;BMP180;7630;50.306;8.566;2024-03-06T21:22:53;98508.00;;;7.70
15062;BMP180;7630;50.306;8.566;2024-03-06T21:26:55;98488.00;;;7.80
15062;BMP180;7630;50.306;8.566;2024-03-06T21:30:56;98481.00;;;7.40
15062;BMP180;7630;50.306;8.566;2024-03-06T21:34:57;98495.00;;;7.60
15062;BMP180;7630;50.306;8.566;2024-03-06T21:38:59;98488.00;;;7.40
15062;BMP180;7630;50.306;8.566;2024-03-06T21:43:00;98495.00;;;7.40
15062;BMP180;7630;50.306;8.566;2024-03-06T21:47:03;98299.00;;;7.30
15062;BMP180;7630;50.306;8.566;2024-03-06T21:51:05;98493.00;;;7.50
15062;BMP180;7630;50.306;8.566;2024-03-06T21:55:06;98492.00;;;7.30
15062;BMP180;7630;50.306;8.566;2024-03-06T21:59:07;98496.00;;;7.30
15062;BMP180;7630;50.306;8.566;2024-03-06T22:03:08;98491.00;;;7.30
15062;BMP180;7630;50.306;8.566;2024-03-06T22:07:10;98490.00;;;7.40
15062;BMP180;7630;50.306;8.566;2024-03-06T22:11:11;98499.00;;;7.20
15062;BMP180;7630;50.306;8.566;2024-03-06T22:15:12;98493.00;;;7.30
15062;BMP180;7630;50.306;8.566;2024-03-06T22:19:14;98490.00;;;7.40
15062;BMP180;7630;50.306;8.566;2024-03-06T22:23:15;98488.00;;;7.30
15062;BMP180;7630;50.306;8.566;2024-03-06T22:27:16;98490.00;;;7.40
15062;BMP180;7630;50.306;8.566;2024-03-06T22:31:17;98492.00;;;7.20
15062;BMP180;7630;50.306;8.566;2024-03-06T22:35:19;98497.00;;;7.30
15062;BMP180;7630;50.306;8.566;2024-03-06T22:39:20;98499.00;;;7.20
15062;BMP180;7630;50.306;8.566;2024-03-06T22:43:22;98502.00;;;7.10
15062;BMP180;7630;50.306;8.566;2024-03-06T22:47:23;98496.00;;;7.20
15062;BMP180;7630;50.306;8.566;2024-03-06T22:51:24;98495.00;;;7.30
15062;BMP180;7630;50.306;8.566;2024-03-06T22:55:25;98463.00;;;7.40
15062;BMP180;7630;50.306;8.566;2024-03-06T22:59:27;98487.00;;;7.40
15062;BMP180;7630;50.306;8.566;2024-03-06T23:03:28;98483.00;;;7.60
15062;BMP180;7630;50.306;8.566;2024-03-06T23:07:29;98514.00;;;7.60
15062;BMP180;7630;50.306;8.566;2024-03-06T23:11:30;98491.00;;;7.60
15062;BMP180;7630;50.306;8.566;2024-03-06T23:15:33;98487.00;;;7.80
15062;BMP180;7630;50.306;8.566;2024-03-06T23:19:34;98489.00;;;7.90
15062;BMP180;7630;50.306;8.566;2024-03-06T23:23:35;98490.00;;;8.00
15062;BMP180;7630;50.306;8.566;2024-03-06T23:27:41;98484.00;;;8.20
15062;BMP180;7630;50.306;8.566;2024-03-06T23:31:40;98480.00;;;8.30
15062;BMP180;7630;50.306;8.566;2024-03-06T23:35:41;98480.00;;;8.30
15062;BMP180;7630;50.306;8.566;2024-03-06T23:39:42;98481.00;;;8.20
15062;BMP180;7630;50.306;8.566;2024-03-06T23:43:43;98477.00;;;8.00
15062;BMP180;7630;50.306;8.566;2024-03-06T23:47:44;98486.00;;;8.00
15062;BMP180;7630;50.306;8.566;2024-03-06T23:51:48;98482.00;;;8.00
15062;BMP180;7630;50.306;8.566;2024-03-06T23:55:49;98490.00;;;8.10
15062;BMP180;7630;50.306;8.566;2024-03-06T23:59:50;98489.00;;;8.20
